Decoded Metar for YFRT (FORREST in _UNIDENTIFIED) (IATA:N/A) | Meteo·Mobile Aviation Weather
aviador You're here:

YFRT Decoded Metar

FORREST in _UNIDENTIFIED
Report Time2018-11-18 19:00:00
UTC Time2018-11-18 19:15:22
Flight Rules unknown UNKNOWN
Wind190° at 07 kt
W.Decomp.*RWY 18: 6.9 kt HW 0.9 kt RCW
RWY 27: 0.9 kt HW 6.9 kt LCW
W.Rank190° ranks 11
Current wind is below 190° avg. (10.8)
VisibilityN/A
Phenomena:N/A
Clouds:N/A
Expected CloudBase > 400 ft AGL from Temp-Dew spread
CeilingNone
Temp15°C (ISA +1)
Dew Point14°C (94% RH)
AAT13.8°C
QNH1007 hPa
Density Alt1,050 ft
Elevation512 ft
Report Wrong Elevation
Raw Report
METAR YFRT 181900Z AUTO 19007KT //// // NCD 15/14 Q1007=

Extra information for YFRT:More info

Metar Taf Metar & Taf Last 4 Metars F.Rules Stats Wind Profile Meteogram Temp Stats Airport Information Weather charts Add Link Nearby VenuesMetar ALERT Operation Metar Decoded Social comments